sensor_id;sensor_type;location;lat;lon;timestamp;pressure;altitude;pressure_sealevel;temperature;humidity
55291;BME280;41155;39.768;2.712;2023-05-08T00:01:54;101701.09;;;20.18;61.71
55291;BME280;41155;39.768;2.712;2023-05-08T00:04:20;101710.38;;;20.22;61.42
55291;BME280;41155;39.768;2.712;2023-05-08T00:06:46;101665.34;;;19.80;61.63
55291;BME280;41155;39.768;2.712;2023-05-08T00:09:11;101720.56;;;19.92;61.87
55291;BME280;41155;39.768;2.712;2023-05-08T00:11:37;101716.22;;;19.91;61.85
55291;BME280;41155;39.768;2.712;2023-05-08T00:14:03;101711.19;;;19.35;63.29
55291;BME280;41155;39.768;2.712;2023-05-08T00:16:28;101719.91;;;19.42;63.56
55291;BME280;41155;39.768;2.712;2023-05-08T00:18:54;101684.69;;;19.30;63.18
55291;BME280;41155;39.768;2.712;2023-05-08T00:21:19;101720.34;;;19.54;63.05
55291;BME280;41155;39.768;2.712;2023-05-08T00:23:45;101738.06;;;19.33;63.79
55291;BME280;41155;39.768;2.712;2023-05-08T00:26:10;101727.28;;;19.07;64.30
55291;BME280;41155;39.768;2.712;2023-05-08T00:28:36;101731.84;;;18.78;65.08
55291;BME280;41155;39.768;2.712;2023-05-08T00:31:01;101675.78;;;18.65;64.54
55291;BME280;41155;39.768;2.712;2023-05-08T00:33:27;101704.25;;;18.59;64.85
55291;BME280;41155;39.768;2.712;2023-05-08T00:36:03;101713.78;;;18.77;64.64
55291;BME280;41155;39.768;2.712;2023-05-08T00:38:31;101721.66;;;18.83;64.89
55291;BME280;41155;39.768;2.712;2023-05-08T00:40:56;101709.25;;;19.01;63.96
55291;BME280;41155;39.768;2.712;2023-05-08T00:43:22;101708.34;;;19.16;63.60
55291;BME280;41155;39.768;2.712;2023-05-08T00:45:51;101701.47;;;19.18;63.45
55291;BME280;41155;39.768;2.712;2023-05-08T00:48:17;101717.72;;;19.44;63.33
55291;BME280;41155;39.768;2.712;2023-05-08T00:50:43;101715.28;;;19.37;63.06
55291;BME280;41155;39.768;2.712;2023-05-08T00:53:10;101722.34;;;19.43;62.94
55291;BME280;41155;39.768;2.712;2023-05-08T00:55:36;101709.22;;;19.40;62.62
55291;BME280;41155;39.768;2.712;2023-05-08T00:58:03;101725.81;;;19.54;62.98
55291;BME280;41155;39.768;2.712;2023-05-08T01:00:30;101722.28;;;19.54;62.51
55291;BME280;41155;39.768;2.712;2023-05-08T01:03:00;101716.09;;;19.38;63.10
55291;BME280;41155;39.768;2.712;2023-05-08T01:05:26;101717.75;;;19.39;63.11
55291;BME280;41155;39.768;2.712;2023-05-08T01:07:52;101714.78;;;19.35;63.21
55291;BME280;41155;39.768;2.712;2023-05-08T01:10:17;101717.31;;;19.27;63.69
55291;BME280;41155;39.768;2.712;2023-05-08T01:12:58;101723.59;;;19.27;63.68
55291;BME280;41155;39.768;2.712;2023-05-08T01:15:34;101717.03;;;19.23;63.27
55291;BME280;41155;39.768;2.712;2023-05-08T01:18:14;101724.41;;;19.28;63.35
55291;BME280;41155;39.768;2.712;2023-05-08T01:34:25;101739.13;;;19.37;63.22
55291;BME280;41155;39.768;2.712;2023-05-08T01:42:42;101738.13;;;18.73;65.67
55291;BME280;41155;39.768;2.712;2023-05-08T01:45:19;101715.41;;;18.72;65.56
55291;BME280;41155;39.768;2.712;2023-05-08T01:47:59;101720.56;;;18.89;65.24
55291;BME280;41155;39.768;2.712;2023-05-08T01:50:34;101699.03;;;18.62;64.99
55291;BME280;41155;39.768;2.712;2023-05-08T01:53:12;101685.94;;;18.54;65.19
55291;BME280;41155;39.768;2.712;2023-05-08T01:55:42;101691.56;;;18.83;64.57
55291;BME280;41155;39.768;2.712;2023-05-08T01:58:15;101680.59;;;18.88;64.41
55291;BME280;41155;39.768;2.712;2023-05-08T02:00:41;101685.41;;;19.07;63.97
55291;BME280;41155;39.768;2.712;2023-05-08T02:03:09;101683.53;;;18.97;64.48
55291;BME280;41155;39.768;2.712;2023-05-08T02:05:37;101673.94;;;19.00;64.38
55291;BME280;41155;39.768;2.712;2023-05-08T02:08:03;101694.63;;;19.21;64.10
55291;BME280;41155;39.768;2.712;2023-05-08T02:10:29;101686.28;;;19.36;63.48
55291;BME280;41155;39.768;2.712;2023-05-08T02:12:57;101689.06;;;19.26;63.24
55291;BME280;41155;39.768;2.712;2023-05-08T02:15:26;101647.06;;;18.67;64.63
55291;BME280;41155;39.768;2.712;2023-05-08T02:17:53;101682.34;;;18.69;65.66
55291;BME280;41155;39.768;2.712;2023-05-08T02:20:20;101666.63;;;18.40;66.07
55291;BME280;41155;39.768;2.712;2023-05-08T02:22:49;101681.69;;;18.33;66.30
55291;BME280;41155;39.768;2.712;2023-05-08T02:25:15;101677.66;;;18.10;66.89
55291;BME280;41155;39.768;2.712;2023-05-08T02:27:44;101677.50;;;18.45;65.83
55291;BME280;41155;39.768;2.712;2023-05-08T02:30:14;101681.81;;;18.62;65.58
55291;BME280;41155;39.768;2.712;2023-05-08T02:32:45;101670.03;;;18.66;65.25
55291;BME280;41155;39.768;2.712;2023-05-08T02:35:15;101667.78;;;18.84;65.33
55291;BME280;41155;39.768;2.712;2023-05-08T02:37:43;101668.25;;;18.91;64.89
55291;BME280;41155;39.768;2.712;2023-05-08T02:40:10;101653.44;;;18.97;64.69
55291;BME280;41155;39.768;2.712;2023-05-08T02:42:37;101669.19;;;19.15;64.32
55291;BME280;41155;39.768;2.712;2023-05-08T02:45:03;101651.63;;;19.22;63.74
55291;BME280;41155;39.768;2.712;2023-05-08T02:47:38;101670.25;;;19.19;63.54
55291;BME280;41155;39.768;2.712;2023-05-08T02:50:17;101679.44;;;19.34;63.39
55291;BME280;41155;39.768;2.712;2023-05-08T02:52:50;101666.28;;;19.36;63.20
55291;BME280;41155;39.768;2.712;2023-05-08T02:55:38;101678.97;;;19.27;63.37
55291;BME280;41155;39.768;2.712;2023-05-08T02:58:28;101675.44;;;19.21;63.77
55291;BME280;41155;39.768;2.712;2023-05-08T03:01:02;101680.94;;;19.21;63.35
55291;BME280;41155;39.768;2.712;2023-05-08T03:03:37;101686.97;;;19.18;63.56
55291;BME280;41155;39.768;2.712;2023-05-08T03:06:07;101685.66;;;19.10;63.70
55291;BME280;41155;39.768;2.712;2023-05-08T03:08:34;101686.88;;;18.89;64.49
55291;BME280;41155;39.768;2.712;2023-05-08T03:11:07;101690.84;;;18.62;65.51
55291;BME280;41155;39.768;2.712;2023-05-08T03:13:37;101683.72;;;18.66;65.19
55291;BME280;41155;39.768;2.712;2023-05-08T03:16:10;101681.81;;;18.62;65.33
55291;BME280;41155;39.768;2.712;2023-05-08T03:18:46;101680.00;;;18.37;66.11
55291;BME280;41155;39.768;2.712;2023-05-08T03:21:16;101687.06;;;18.48;65.78
55291;BME280;41155;39.768;2.712;2023-05-08T03:23:43;101687.03;;;18.63;64.90
55291;BME280;41155;39.768;2.712;2023-05-08T03:26:09;101689.56;;;18.44;65.68
55291;BME280;41155;39.768;2.712;2023-05-08T03:28:36;101690.03;;;18.57;65.54
55291;BME280;41155;39.768;2.712;2023-05-08T03:31:04;101700.16;;;18.56;65.06
55291;BME280;41155;39.768;2.712;2023-05-08T03:33:31;101702.03;;;18.66;65.12
55291;BME280;41155;39.768;2.712;2023-05-08T03:35:58;101701.19;;;18.70;65.18
55291;BME280;41155;39.768;2.712;2023-05-08T03:38:24;101672.81;;;18.56;64.79
55291;BME280;41155;39.768;2.712;2023-05-08T03:40:50;101709.63;;;18.84;64.67
55291;BME280;41155;39.768;2.712;2023-05-08T03:43:17;101695.19;;;18.73;64.75
55291;BME280;41155;39.768;2.712;2023-05-08T03:45:44;101711.59;;;18.73;64.67
55291;BME280;41155;39.768;2.712;2023-05-08T03:48:12;101700.88;;;18.82;64.35
55291;BME280;41155;39.768;2.712;2023-05-08T03:50:38;101694.91;;;18.70;63.94
55291;BME280;41155;39.768;2.712;2023-05-08T03:53:04;101707.22;;;18.72;64.15
55291;BME280;41155;39.768;2.712;2023-05-08T03:55:30;101708.59;;;18.75;63.95
55291;BME280;41155;39.768;2.712;2023-05-08T04:00:53;101703.19;;;18.55;64.75
55291;BME280;41155;39.768;2.712;2023-05-08T04:06:19;101697.19;;;18.52;65.53
55291;BME280;41155;39.768;2.712;2023-05-08T04:08:50;101705.38;;;18.52;65.89
55291;BME280;41155;39.768;2.712;2023-05-08T04:11:26;101706.97;;;18.64;65.22
55291;BME280;41155;39.768;2.712;2023-05-08T04:13:57;101711.66;;;18.53;65.29
55291;BME280;41155;39.768;2.712;2023-05-08T04:16:26;101706.28;;;18.33;65.89
55291;BME280;41155;39.768;2.712;2023-05-08T04:19:01;101709.81;;;18.43;65.65
55291;BME280;41155;39.768;2.712;2023-05-08T04:21:28;101702.56;;;18.03;66.27
55291;BME280;41155;39.768;2.712;2023-05-08T04:23:58;101691.63;;;18.08;66.29
55291;BME280;41155;39.768;2.712;2023-05-08T04:26:24;101705.84;;;17.90;67.06
55291;BME280;41155;39.768;2.712;2023-05-08T04:28:50;101714.06;;;18.00;66.58
55291;BME280;41155;39.768;2.712;2023-05-08T04:31:17;101691.66;;;17.93;66.35
55291;BME280;41155;39.768;2.712;2023-05-08T04:33:44;101702.56;;;18.08;65.97
55291;BME280;41155;39.768;2.712;2023-05-08T04:36:13;101689.16;;;18.01;66.02
55291;BME280;41155;39.768;2.712;2023-05-08T04:38:39;101703.06;;;18.10;65.94
55291;BME280;41155;39.768;2.712;2023-05-08T04:41:06;101704.19;;;18.14;65.96
55291;BME280;41155;39.768;2.712;2023-05-08T04:43:32;101699.25;;;18.11;66.04
55291;BME280;41155;39.768;2.712;2023-05-08T04:45:57;101707.41;;;18.26;65.54
55291;BME280;41155;39.768;2.712;2023-05-08T04:48:22;101684.00;;;17.64;66.91
55291;BME280;41155;39.768;2.712;2023-05-08T04:50:49;101707.78;;;17.48;67.61
55291;BME280;41155;39.768;2.712;2023-05-08T04:53:14;101705.88;;;17.13;69.62
55291;BME280;41155;39.768;2.712;2023-05-08T04:55:40;101672.81;;;17.09;67.98
55291;BME280;41155;39.768;2.712;2023-05-08T04:58:06;101706.13;;;17.47;67.80
55291;BME280;41155;39.768;2.712;2023-05-08T05:00:32;101712.41;;;17.53;67.11
55291;BME280;41155;39.768;2.712;2023-05-08T05:03:01;101708.63;;;17.54;66.98
55291;BME280;41155;39.768;2.712;2023-05-08T05:05:26;101709.69;;;17.68;66.24
55291;BME280;41155;39.768;2.712;2023-05-08T05:07:52;101713.53;;;17.82;65.88
55291;BME280;41155;39.768;2.712;2023-05-08T05:10:17;101710.78;;;17.93;66.07
55291;BME280;41155;39.768;2.712;2023-05-08T05:12:43;101711.88;;;17.92;66.31
55291;BME280;41155;39.768;2.712;2023-05-08T05:15:08;101702.31;;;17.89;66.65
55291;BME280;41155;39.768;2.712;2023-05-08T05:17:34;101706.69;;;17.59;67.63
55291;BME280;41155;39.768;2.712;2023-05-08T05:19:59;101717.63;;;17.54;68.25
55291;BME280;41155;39.768;2.712;2023-05-08T05:22:25;101709.41;;;17.70;67.64
55291;BME280;41155;39.768;2.712;2023-05-08T05:24:52;101710.00;;;17.82;67.11
55291;BME280;41155;39.768;2.712;2023-05-08T05:27:17;101708.03;;;17.93;66.80
55291;BME280;41155;39.768;2.712;2023-05-08T05:29:42;101720.59;;;18.09;66.18
55291;BME280;41155;39.768;2.712;2023-05-08T05:32:08;101715.13;;;18.09;65.98
55291;BME280;41155;39.768;2.712;2023-05-08T05:34:35;101709.41;;;17.75;66.95
55291;BME280;41155;39.768;2.712;2023-05-08T05:37:01;101708.59;;;17.64;67.32
55291;BME280;41155;39.768;2.712;2023-05-08T05:39:26;101711.88;;;17.66;67.60
55291;BME280;41155;39.768;2.712;2023-05-08T05:41:52;101717.31;;;17.56;67.30
55291;BME280;41155;39.768;2.712;2023-05-08T05:44:17;101670.94;;;17.46;66.70
55291;BME280;41155;39.768;2.712;2023-05-08T05:46:42;101708.88;;;17.68;66.74
55291;BME280;41155;39.768;2.712;2023-05-08T05:49:08;101717.91;;;17.83;66.43
55291;BME280;41155;39.768;2.712;2023-05-08T05:51:33;101721.44;;;17.94;65.81
55291;BME280;41155;39.768;2.712;2023-05-08T05:53:59;101721.69;;;18.08;64.90
55291;BME280;41155;39.768;2.712;2023-05-08T05:56:24;101723.28;;;18.19;64.42
55291;BME280;41155;39.768;2.712;2023-05-08T05:58:50;101722.75;;;18.12;63.80
55291;BME280;41155;39.768;2.712;2023-05-08T06:01:16;101724.13;;;18.10;64.10
55291;BME280;41155;39.768;2.712;2023-05-08T06:03:41;101735.31;;;18.23;64.75
55291;BME280;41155;39.768;2.712;2023-05-08T06:06:07;101737.47;;;18.32;64.91
55291;BME280;41155;39.768;2.712;2023-05-08T06:08:32;101739.59;;;18.50;65.04
55291;BME280;41155;39.768;2.712;2023-05-08T06:10:58;101721.00;;;18.52;65.14
55291;BME280;41155;39.768;2.712;2023-05-08T06:13:23;101733.25;;;18.60;65.13
55291;BME280;41155;39.768;2.712;2023-05-08T06:15:49;101743.91;;;18.66;64.95
55291;BME280;41155;39.768;2.712;2023-05-08T06:18:15;101742.78;;;18.78;64.68
55291;BME280;41155;39.768;2.712;2023-05-08T06:20:41;101730.16;;;18.82;64.20
55291;BME280;41155;39.768;2.712;2023-05-08T06:23:06;101737.44;;;19.02;63.47
55291;BME280;41155;39.768;2.712;2023-05-08T06:25:32;101737.69;;;19.05;63.19
55291;BME280;41155;39.768;2.712;2023-05-08T06:27:57;101723.19;;;19.05;62.56
55291;BME280;41155;39.768;2.712;2023-05-08T06:30:23;101744.47;;;19.18;62.07
55291;BME280;41155;39.768;2.712;2023-05-08T06:32:48;101744.38;;;19.28;61.04
55291;BME280;41155;39.768;2.712;2023-05-08T06:35:14;101738.84;;;19.38;60.41
55291;BME280;41155;39.768;2.712;2023-05-08T06:37:43;101732.94;;;19.21;61.17
55291;BME280;41155;39.768;2.712;2023-05-08T06:40:09;101736.25;;;19.18;61.09
55291;BME280;41155;39.768;2.712;2023-05-08T06:42:35;101738.31;;;19.36;60.93
55291;BME280;41155;39.768;2.712;2023-05-08T06:45:01;101734.91;;;19.50;60.27
55291;BME280;41155;39.768;2.712;2023-05-08T06:47:27;101739.50;;;19.59;60.19
55291;BME280;41155;39.768;2.712;2023-05-08T06:49:52;101748.72;;;19.74;59.94
55291;BME280;41155;39.768;2.712;2023-05-08T06:52:18;101739.75;;;19.92;58.65
55291;BME280;41155;39.768;2.712;2023-05-08T06:54:45;101733.13;;;19.98;58.44
55291;BME280;41155;39.768;2.712;2023-05-08T06:57:11;101731.13;;;20.04;58.02
55291;BME280;41155;39.768;2.712;2023-05-08T06:59:39;101735.59;;;20.00;58.48
55291;BME280;41155;39.768;2.712;2023-05-08T07:02:04;101740.34;;;20.13;57.80
55291;BME280;41155;39.768;2.712;2023-05-08T07:04:30;101746.91;;;20.41;57.33
55291;BME280;41155;39.768;2.712;2023-05-08T07:06:56;101749.66;;;20.65;56.93
55291;BME280;41155;39.768;2.712;2023-05-08T07:09:21;101753.03;;;20.81;57.42
55291;BME280;41155;39.768;2.712;2023-05-08T07:11:47;101748.72;;;20.75;60.25
55291;BME280;41155;39.768;2.712;2023-05-08T07:14:12;101725.97;;;20.74;60.45
55291;BME280;41155;39.768;2.712;2023-05-08T07:16:38;101745.53;;;20.87;62.14
55291;BME280;41155;39.768;2.712;2023-05-08T07:19:03;101756.22;;;21.07;62.23
55291;BME280;41155;39.768;2.712;2023-05-08T07:21:29;101753.03;;;21.19;62.88
55291;BME280;41155;39.768;2.712;2023-05-08T07:23:55;101740.44;;;21.37;62.82
55291;BME280;41155;39.768;2.712;2023-05-08T07:26:20;101736.53;;;21.57;63.65
55291;BME280;41155;39.768;2.712;2023-05-08T07:28:47;101744.88;;;21.84;63.44
55291;BME280;41155;39.768;2.712;2023-05-08T07:31:13;101734.09;;;22.02;62.38
55291;BME280;41155;39.768;2.712;2023-05-08T07:33:39;101755.38;;;22.10;62.24
55291;BME280;41155;39.768;2.712;2023-05-08T07:36:05;101759.69;;;22.16;62.23
55291;BME280;41155;39.768;2.712;2023-05-08T07:38:30;101749.13;;;22.37;61.16
55291;BME280;41155;39.768;2.712;2023-05-08T07:40:56;101757.06;;;22.25;62.39
55291;BME280;41155;39.768;2.712;2023-05-08T07:43:22;101759.59;;;22.21;62.41
55291;BME280;41155;39.768;2.712;2023-05-08T07:45:48;101747.88;;;22.43;61.85
55291;BME280;41155;39.768;2.712;2023-05-08T07:48:13;101744.69;;;22.77;60.71
55291;BME280;41155;39.768;2.712;2023-05-08T07:50:39;101740.72;;;22.56;61.13
55291;BME280;41155;39.768;2.712;2023-05-08T07:53:05;101746.56;;;22.68;60.55
55291;BME280;41155;39.768;2.712;2023-05-08T07:55:30;101742.16;;;22.67;60.42
55291;BME280;41155;39.768;2.712;2023-05-08T07:57:56;101735.91;;;22.75;60.46
55291;BME280;41155;39.768;2.712;2023-05-08T08:00:23;101744.25;;;22.84;60.65
55291;BME280;41155;39.768;2.712;2023-05-08T08:02:48;101736.88;;;22.57;62.06
55291;BME280;41155;39.768;2.712;2023-05-08T08:05:14;101724.81;;;22.81;60.68
55291;BME280;41155;39.768;2.712;2023-05-08T08:07:39;101734.75;;;23.04;59.95
55291;BME280;41155;39.768;2.712;2023-05-08T08:10:05;101742.50;;;23.02;59.72
55291;BME280;41155;39.768;2.712;2023-05-08T08:12:31;101746.59;;;23.05;60.29
55291;BME280;41155;39.768;2.712;2023-05-08T08:14:57;101737.44;;;22.82;61.17
55291;BME280;41155;39.768;2.712;2023-05-08T08:17:22;101748.44;;;22.82;61.26
55291;BME280;41155;39.768;2.712;2023-05-08T08:19:48;101736.34;;;22.69;61.42
55291;BME280;41155;39.768;2.712;2023-05-08T08:22:14;101739.09;;;22.55;62.08
55291;BME280;41155;39.768;2.712;2023-05-08T08:24:39;101736.88;;;22.57;62.07
55291;BME280;41155;39.768;2.712;2023-05-08T08:27:05;101742.34;;;22.71;61.62
55291;BME280;41155;39.768;2.712;2023-05-08T08:29:30;101737.31;;;22.87;61.24
55291;BME280;41155;39.768;2.712;2023-05-08T08:31:56;101743.22;;;22.94;61.41
55291;BME280;41155;39.768;2.712;2023-05-08T08:34:21;101736.81;;;22.98;60.88
55291;BME280;41155;39.768;2.712;2023-05-08T08:36:47;101738.53;;;22.94;61.14
55291;BME280;41155;39.768;2.712;2023-05-08T08:39:13;101738.25;;;22.96;60.89
55291;BME280;41155;39.768;2.712;2023-05-08T08:41:39;101720.59;;;22.97;60.83
55291;BME280;41155;39.768;2.712;2023-05-08T08:44:05;101744.97;;;23.04;61.27
55291;BME280;41155;39.768;2.712;2023-05-08T08:46:31;101734.13;;;22.93;61.54
55291;BME280;41155;39.768;2.712;2023-05-08T08:49:02;101737.50;;;22.90;61.26
55291;BME280;41155;39.768;2.712;2023-05-08T08:51:32;101746.50;;;22.96;61.74
55291;BME280;41155;39.768;2.712;2023-05-08T08:54:04;101748.63;;;22.99;61.15
55291;BME280;41155;39.768;2.712;2023-05-08T08:56:33;101758.72;;;22.90;61.42
55291;BME280;41155;39.768;2.712;2023-05-08T08:59:00;101759.66;;;22.99;61.22
55291;BME280;41155;39.768;2.712;2023-05-08T09:01:27;101744.78;;;22.86;61.34
55291;BME280;41155;39.768;2.712;2023-05-08T09:03:56;101749.44;;;22.99;61.35
55291;BME280;41155;39.768;2.712;2023-05-08T09:06:22;101749.16;;;23.01;61.27
55291;BME280;41155;39.768;2.712;2023-05-08T09:08:49;101746.78;;;23.08;60.92
55291;BME280;41155;39.768;2.712;2023-05-08T09:11:15;101750.81;;;23.24;60.59
55291;BME280;41155;39.768;2.712;2023-05-08T09:13:40;101748.88;;;23.48;60.01
55291;BME280;41155;39.768;2.712;2023-05-08T09:16:06;101761.97;;;23.42;59.38
55291;BME280;41155;39.768;2.712;2023-05-08T09:18:31;101742.84;;;23.45;59.40
55291;BME280;41155;39.768;2.712;2023-05-08T09:20:57;101757.16;;;23.70;58.92
55291;BME280;41155;39.768;2.712;2023-05-08T09:23:25;101770.25;;;23.64;59.02
55291;BME280;41155;39.768;2.712;2023-05-08T09:25:51;101764.16;;;23.54;58.69
55291;BME280;41155;39.768;2.712;2023-05-08T09:28:18;101762.84;;;23.51;58.72
55291;BME280;41155;39.768;2.712;2023-05-08T09:31:05;101758.47;;;23.73;58.52
55291;BME280;41155;39.768;2.712;2023-05-08T09:33:31;101761.72;;;23.75;57.86
55291;BME280;41155;39.768;2.712;2023-05-08T09:35:56;101771.50;;;23.81;58.05
55291;BME280;41155;39.768;2.712;2023-05-08T09:38:39;101760.97;;;23.83;57.85
55291;BME280;41155;39.768;2.712;2023-05-08T09:41:12;101766.19;;;24.16;57.47
55291;BME280;41155;39.768;2.712;2023-05-08T09:43:44;101772.03;;;24.23;56.56
55291;BME280;41155;39.768;2.712;2023-05-08T09:46:25;101749.38;;;24.03;56.67
55291;BME280;41155;39.768;2.712;2023-05-08T09:48:52;101772.13;;;24.09;57.00
55291;BME280;41155;39.768;2.712;2023-05-08T09:51:19;101778.59;;;23.73;58.09
55291;BME280;41155;39.768;2.712;2023-05-08T09:53:45;101767.44;;;23.78;57.55
55291;BME280;41155;39.768;2.712;2023-05-08T09:56:10;101785.50;;;24.16;56.96
55291;BME280;41155;39.768;2.712;2023-05-08T09:58:40;101788.13;;;24.29;56.68
55291;BME280;41155;39.768;2.712;2023-05-08T10:01:07;101790.38;;;24.19;56.40
55291;BME280;41155;39.768;2.712;2023-05-08T10:03:49;101781.41;;;24.13;56.32
55291;BME280;41155;39.768;2.712;2023-05-08T10:06:15;101781.22;;;24.09;56.24
55291;BME280;41155;39.768;2.712;2023-05-08T10:08:40;101788.63;;;24.31;56.03
55291;BME280;41155;39.768;2.712;2023-05-08T10:11:16;101793.97;;;24.28;55.80
55291;BME280;41155;39.768;2.712;2023-05-08T10:13:43;101795.69;;;24.15;56.25
55291;BME280;41155;39.768;2.712;2023-05-08T10:16:19;101796.06;;;23.91;56.72
55291;BME280;41155;39.768;2.712;2023-05-08T10:18:47;101780.66;;;23.90;56.65
55291;BME280;41155;39.768;2.712;2023-05-08T10:21:14;101785.09;;;23.77;57.08
55291;BME280;41155;39.768;2.712;2023-05-08T10:23:46;101791.41;;;23.78;57.55
55291;BME280;41155;39.768;2.712;2023-05-08T10:26:15;101781.00;;;23.97;56.91
55291;BME280;41155;39.768;2.712;2023-05-08T10:28:57;101755.44;;;23.83;56.99
55291;BME280;41155;39.768;2.712;2023-05-08T10:31:24;101769.41;;;24.18;56.12
55291;BME280;41155;39.768;2.712;2023-05-08T10:33:54;101763.66;;;24.36;55.65
55291;BME280;41155;39.768;2.712;2023-05-08T10:36:24;101770.25;;;24.58;55.14
55291;BME280;41155;39.768;2.712;2023-05-08T10:38:50;101770.63;;;24.83;54.49
55291;BME280;41155;39.768;2.712;2023-05-08T10:41:18;101755.53;;;24.97;53.92
55291;BME280;41155;39.768;2.712;2023-05-08T10:43:43;101771.34;;;25.40;53.51
55291;BME280;41155;39.768;2.712;2023-05-08T10:49:42;101768.72;;;25.53;52.27
55291;BME280;41155;39.768;2.712;2023-05-08T10:52:27;101738.31;;;25.09;52.31
55291;BME280;41155;39.768;2.712;2023-05-08T10:55:01;101778.59;;;25.01;53.44
55291;BME280;41155;39.768;2.712;2023-05-08T10:57:32;101778.28;;;24.94;53.49
55291;BME280;41155;39.768;2.712;2023-05-08T10:59:58;101776.63;;;24.76;53.96
55291;BME280;41155;39.768;2.712;2023-05-08T11:02:28;101776.63;;;24.93;53.68
55291;BME280;41155;39.768;2.712;2023-05-08T11:05:17;101775.69;;;24.98;53.04
55291;BME280;41155;39.768;2.712;2023-05-08T11:07:56;101784.94;;;25.02;54.09
55291;BME280;41155;39.768;2.712;2023-05-08T11:10:29;101782.69;;;25.13;53.77
55291;BME280;41155;39.768;2.712;2023-05-08T11:12:56;101779.63;;;25.23;53.49
55291;BME280;41155;39.768;2.712;2023-05-08T11:15:36;101775.56;;;25.38;52.76
55291;BME280;41155;39.768;2.712;2023-05-08T11:18:05;101765.16;;;25.35;52.75
55291;BME280;41155;39.768;2.712;2023-05-08T11:20:53;101761.59;;;25.43;52.83
55291;BME280;41155;39.768;2.712;2023-05-08T11:23:26;101752.78;;;25.41;52.33
55291;BME280;41155;39.768;2.712;2023-05-08T11:26:04;101772.31;;;25.27;53.02
55291;BME280;41155;39.768;2.712;2023-05-08T11:28:37;101765.47;;;25.33;53.02
55291;BME280;41155;39.768;2.712;2023-05-08T11:31:04;101766.63;;;25.15;53.50
55291;BME280;41155;39.768;2.712;2023-05-08T11:33:34;101741.56;;;24.85;53.73
55291;BME280;41155;39.768;2.712;2023-05-08T11:36:18;101759.75;;;24.86;53.47
55291;BME280;41155;39.768;2.712;2023-05-08T11:39:08;101751.91;;;24.53;54.53
55291;BME280;41155;39.768;2.712;2023-05-08T11:41:37;101757.09;;;24.64;53.80
55291;BME280;41155;39.768;2.712;2023-05-08T11:49:14;101743.34;;;24.98;51.79
55291;BME280;41155;39.768;2.712;2023-05-08T11:51:42;101747.91;;;25.03;51.77
55291;BME280;41155;39.768;2.712;2023-05-08T11:54:13;101742.88;;;25.22;50.97
55291;BME280;41155;39.768;2.712;2023-05-08T11:56:40;101730.84;;;25.27;50.66
55291;BME280;41155;39.768;2.712;2023-05-08T11:59:07;101739.72;;;25.76;49.19
55291;BME280;41155;39.768;2.712;2023-05-08T12:01:34;101737.97;;;25.54;47.87
55291;BME280;41155;39.768;2.712;2023-05-08T12:04:04;101728.78;;;25.88;47.94
55291;BME280;41155;39.768;2.712;2023-05-08T12:06:30;101739.63;;;26.11;47.50
55291;BME280;41155;39.768;2.712;2023-05-08T12:08:57;101723.22;;;25.97;47.50
55291;BME280;41155;39.768;2.712;2023-05-08T12:11:23;101732.56;;;25.75;47.04
55291;BME280;41155;39.768;2.712;2023-05-08T12:13:51;101707.50;;;25.71;47.53
55291;BME280;41155;39.768;2.712;2023-05-08T12:16:16;101719.94;;;26.12;47.33
55291;BME280;41155;39.768;2.712;2023-05-08T12:18:42;101726.38;;;26.25;46.46
55291;BME280;41155;39.768;2.712;2023-05-08T12:21:09;101728.22;;;26.12;46.86
55291;BME280;41155;39.768;2.712;2023-05-08T12:23:35;101705.66;;;26.02;46.98
55291;BME280;41155;39.768;2.712;2023-05-08T12:26:02;101713.78;;;26.07;46.10
55291;BME280;41155;39.768;2.712;2023-05-08T12:28:29;101716.03;;;26.05;45.43
55291;BME280;41155;39.768;2.712;2023-05-08T12:30:56;101700.34;;;25.70;46.51
55291;BME280;41155;39.768;2.712;2023-05-08T12:33:22;101708.75;;;25.91;47.47
55291;BME280;41155;39.768;2.712;2023-05-08T12:35:49;101702.13;;;25.75;47.05
55291;BME280;41155;39.768;2.712;2023-05-08T12:38:14;101687.00;;;25.73;46.75
55291;BME280;41155;39.768;2.712;2023-05-08T12:40:45;101665.91;;;25.51;47.09
55291;BME280;41155;39.768;2.712;2023-05-08T12:43:11;101670.69;;;25.80;46.58
55291;BME280;41155;39.768;2.712;2023-05-08T12:45:38;101668.91;;;25.92;46.09
55291;BME280;41155;39.768;2.712;2023-05-08T12:48:11;101688.88;;;26.07;46.48
55291;BME280;41155;39.768;2.712;2023-05-08T12:50:42;101679.47;;;25.90;46.88
55291;BME280;41155;39.768;2.712;2023-05-08T12:53:12;101680.16;;;25.87;47.51
55291;BME280;41155;39.768;2.712;2023-05-08T12:55:39;101679.63;;;26.24;46.32
55291;BME280;41155;39.768;2.712;2023-05-08T12:58:08;101676.91;;;26.45;45.79
55291;BME280;41155;39.768;2.712;2023-05-08T13:03:04;101661.06;;;26.54;45.39
55291;BME280;41155;39.768;2.712;2023-05-08T13:05:30;101670.72;;;26.90;45.11
55291;BME280;41155;39.768;2.712;2023-05-08T13:08:00;101641.88;;;26.91;44.39
55291;BME280;41155;39.768;2.712;2023-05-08T13:10:45;101653.97;;;26.86;43.95
55291;BME280;41155;39.768;2.712;2023-05-08T13:13:19;101652.34;;;26.64;44.45
55291;BME280;41155;39.768;2.712;2023-05-08T13:15:46;101656.06;;;26.47;44.86
55291;BME280;41155;39.768;2.712;2023-05-08T13:18:12;101647.72;;;26.56;44.99
55291;BME280;41155;39.768;2.712;2023-05-08T13:20:38;101646.31;;;25.73;48.76
55291;BME280;41155;39.768;2.712;2023-05-08T13:23:08;101647.19;;;25.56;48.99
55291;BME280;41155;39.768;2.712;2023-05-08T13:25:35;101655.28;;;25.23;50.88
55291;BME280;41155;39.768;2.712;2023-05-08T13:28:01;101666.78;;;25.08;50.20
55291;BME280;41155;39.768;2.712;2023-05-08T13:30:27;101650.72;;;24.92;51.41
55291;BME280;41155;39.768;2.712;2023-05-08T13:32:53;101636.09;;;24.57;50.96